createdAt,value
2022-08-26T00:02:12.677Z,101311.75
2022-08-26T00:04:41.028Z,101315.78
2022-08-26T00:07:10.533Z,101317.69
2022-08-26T00:09:40.262Z,101310.59
2022-08-26T00:12:09.370Z,101311.81
2022-08-26T00:14:41.205Z,101306.94
2022-08-26T00:17:09.696Z,101304.91
2022-08-26T00:19:37.747Z,101310.56
2022-08-26T00:22:06.447Z,101316.75
2022-08-26T00:24:36.159Z,101314.06
2022-08-26T00:27:04.395Z,101308.06
2022-08-26T00:29:35.625Z,101313.38
2022-08-26T00:32:06.936Z,101316.53
2022-08-26T00:34:36.149Z,101320.72
2022-08-26T00:37:04.349Z,101313.06
2022-08-26T00:39:38.547Z,101313.81
2022-08-26T00:42:06.859Z,101314.69
2022-08-26T00:44:37.897Z,101312.19
2022-08-26T00:47:10.652Z,101314.59
2022-08-26T00:49:41.700Z,101307.97
2022-08-26T00:52:13.303Z,101313.16
2022-08-26T00:54:50.416Z,101316.66
2022-08-26T00:57:20.912Z,101314.59
2022-08-26T00:59:58.678Z,101314.34
2022-08-26T01:02:27.095Z,101317.03
2022-08-26T01:04:59.888Z,101321.84
2022-08-26T01:07:30.261Z,101315.63
2022-08-26T01:10:02.430Z,101316.06
2022-08-26T01:12:40.219Z,101316.06
2022-08-26T01:15:11.233Z,101320.59
2022-08-26T01:17:40.322Z,101314.88
2022-08-26T01:20:14.452Z,101319.88
2022-08-26T01:22:52.321Z,101316.06
2022-08-26T01:25:22.216Z,101320.25
2022-08-26T01:27:51.744Z,101318.28
2022-08-26T01:30:20.454Z,101315.28
2022-08-26T01:32:51.703Z,101322.13
2022-08-26T01:35:20.927Z,101310.72
2022-08-26T01:37:54.977Z,101313.56
2022-08-26T01:40:29.411Z,101315.56
2022-08-26T01:42:57.963Z,101311.03
2022-08-26T01:45:29.343Z,101317.22
2022-08-26T01:48:00.373Z,101314.19
2022-08-26T01:50:31.833Z,101321.38
2022-08-26T01:53:06.154Z,101321.19
2022-08-26T01:55:35.489Z,101326.03
2022-08-26T01:58:08.140Z,101327.50
2022-08-26T02:00:37.356Z,101328.34
2022-08-26T02:03:22.233Z,101334.16
2022-08-26T02:05:54.950Z,101335.97
2022-08-26T02:08:28.229Z,101334.81
2022-08-26T02:10:56.839Z,101339.34
2022-08-26T02:13:30.142Z,101329.81
2022-08-26T02:15:58.560Z,101326.59
2022-08-26T02:18:27.741Z,101328.88
2022-08-26T02:20:57.144Z,101327.78
2022-08-26T02:23:26.752Z,101331.09
2022-08-26T02:26:01.076Z,101327.91
2022-08-26T02:28:32.666Z,101328.75
2022-08-26T02:31:01.770Z,101326.91
2022-08-26T02:33:31.688Z,101326.75
2022-08-26T02:35:59.814Z,101328.06
2022-08-26T02:38:29.539Z,101321.88
2022-08-26T02:40:57.769Z,101332.31
2022-08-26T02:43:31.277Z,101322.28
2022-08-26T02:46:01.989Z,101328.22
2022-08-26T02:48:31.267Z,101330.06
2022-08-26T02:51:00.979Z,101335.00
2022-08-26T02:53:31.758Z,101337.06
2022-08-26T02:56:00.138Z,101334.09
2022-08-26T02:58:28.145Z,101342.41
2022-08-26T03:00:56.202Z,101339.03
2022-08-26T03:03:24.174Z,101336.97
2022-08-26T03:05:52.237Z,101337.94
2022-08-26T03:08:20.950Z,101329.66
2022-08-26T03:10:50.898Z,101324.97
2022-08-26T03:13:19.227Z,101322.03
2022-08-26T03:15:47.620Z,101319.78
2022-08-26T03:18:16.232Z,101324.59
2022-08-26T03:20:44.583Z,101323.28
2022-08-26T03:23:12.976Z,101322.94
2022-08-26T03:25:41.076Z,101325.59
2022-08-26T03:28:10.636Z,101320.03
2022-08-26T03:30:44.798Z,101334.00
2022-08-26T03:33:14.969Z,101335.19
2022-08-26T03:35:45.628Z,101333.47
2022-08-26T03:38:13.757Z,101329.66
2022-08-26T03:40:43.605Z,101333.00
2022-08-26T03:43:14.656Z,101340.88
2022-08-26T03:45:42.937Z,101342.22
2022-08-26T03:48:14.361Z,101348.63
2022-08-26T03:50:43.732Z,101342.63
2022-08-26T03:53:13.125Z,101338.41
2022-08-26T03:55:43.310Z,101346.13
2022-08-26T03:58:11.405Z,101347.03
2022-08-26T04:00:40.799Z,101353.69
2022-08-26T04:03:10.029Z,101352.16
2022-08-26T04:05:39.000Z,101358.97
2022-08-26T04:08:07.069Z,101355.75
2022-08-26T04:10:35.463Z,101354.94
2022-08-26T04:13:03.883Z,101351.13
2022-08-26T04:15:32.031Z,101347.31
2022-08-26T04:18:03.412Z,101341.31
2022-08-26T04:20:31.984Z,101343.66
2022-08-26T04:23:00.458Z,101344.97
2022-08-26T04:25:28.534Z,101339.47
2022-08-26T04:27:56.888Z,101347.31
2022-08-26T04:30:25.569Z,101342.63
2022-08-26T04:32:53.659Z,101350.31
2022-08-26T04:35:25.992Z,101350.47
2022-08-26T04:37:55.507Z,101347.19
2022-08-26T04:40:24.207Z,101349.19
2022-08-26T04:42:54.086Z,101345.06
2022-08-26T04:45:22.573Z,101348.44
2022-08-26T04:47:56.356Z,101350.31
2022-08-26T04:50:27.036Z,101358.19
2022-08-26T04:52:56.454Z,101355.97
2022-08-26T04:55:38.122Z,101360.03
2022-08-26T04:58:10.239Z,101363.16
2022-08-26T05:00:39.415Z,101364.16
2022-08-26T05:03:10.589Z,101359.88
2022-08-26T05:05:42.533Z,101361.16
2022-08-26T05:08:11.816Z,101361.72
2022-08-26T05:10:42.042Z,101369.41
2022-08-26T05:13:15.153Z,101372.50
2022-08-26T05:15:44.367Z,101366.75
2022-08-26T05:18:14.968Z,101371.25
2022-08-26T05:20:47.400Z,101367.56
2022-08-26T05:23:15.908Z,101373.94
2022-08-26T05:25:46.648Z,101373.06
2022-08-26T05:28:17.520Z,101379.09
2022-08-26T05:30:46.196Z,101381.66
2022-08-26T05:33:14.562Z,101389.81
2022-08-26T05:35:45.157Z,101386.28
2022-08-26T05:38:17.057Z,101385.28
2022-08-26T05:40:46.984Z,101386.53
2022-08-26T05:43:15.163Z,101388.84
2022-08-26T05:45:46.544Z,101391.53
2022-08-26T05:48:16.402Z,101397.06
2022-08-26T05:50:48.185Z,101388.59
2022-08-26T05:53:18.629Z,101402.34
2022-08-26T05:55:51.048Z,101405.03
2022-08-26T05:58:21.188Z,101403.66
2022-08-26T06:00:58.988Z,101401.88
2022-08-26T06:03:28.037Z,101402.41
2022-08-26T06:05:57.432Z,101404.06
2022-08-26T06:08:25.649Z,101407.59
2022-08-26T06:10:55.700Z,101407.44
2022-08-26T06:13:25.627Z,101411.56
2022-08-26T06:15:54.318Z,101410.03
2022-08-26T06:18:24.698Z,101413.63
2022-08-26T06:20:57.887Z,101417.66
2022-08-26T06:23:45.326Z,101419.72
2022-08-26T06:26:16.746Z,101417.94
2022-08-26T06:28:45.821Z,101416.47
2022-08-26T06:31:14.673Z,101419.69
2022-08-26T06:33:43.072Z,101417.72
2022-08-26T06:36:15.915Z,101416.09
2022-08-26T06:38:48.849Z,101416.28
2022-08-26T06:41:21.346Z,101422.53
2022-08-26T06:43:50.251Z,101422.22
2022-08-26T06:46:21.639Z,101429.47
2022-08-26T06:48:50.573Z,101432.19
2022-08-26T06:51:22.426Z,101430.22
2022-08-26T06:53:55.499Z,101432.41
2022-08-26T06:56:25.840Z,101435.28
2022-08-26T06:58:54.620Z,101436.81
2022-08-26T07:01:25.873Z,101435.66
2022-08-26T07:03:56.983Z,101439.84
2022-08-26T07:06:25.701Z,101441.66
2022-08-26T07:09:03.434Z,101438.78
2022-08-26T07:11:31.628Z,101437.34
2022-08-26T07:14:00.352Z,101437.19
2022-08-26T07:16:29.953Z,101449.25
2022-08-26T07:18:59.049Z,101447.38
2022-08-26T07:21:30.170Z,101449.78
2022-08-26T07:24:00.658Z,101441.09
2022-08-26T07:26:31.892Z,101448.81
2022-08-26T07:29:01.792Z,101446.28
2022-08-26T07:31:39.207Z,101449.97
2022-08-26T07:34:10.620Z,101459.69
2022-08-26T07:36:38.858Z,101464.50
2022-08-26T07:39:08.409Z,101461.84
2022-08-26T07:41:37.161Z,101462.03
2022-08-26T07:44:06.468Z,101466.19
2022-08-26T07:46:36.661Z,101475.44
2022-08-26T07:49:04.858Z,101470.78
2022-08-26T07:51:33.493Z,101472.53
2022-08-26T07:54:01.558Z,101480.56
2022-08-26T07:56:31.004Z,101478.59
2022-08-26T07:58:59.514Z,101472.97
2022-08-26T08:01:29.697Z,101482.63
2022-08-26T08:03:59.013Z,101483.97
2022-08-26T08:06:28.307Z,101476.97
2022-08-26T08:08:57.311Z,101481.31
2022-08-26T08:11:27.310Z,101478.16
2022-08-26T08:13:57.036Z,101480.16
2022-08-26T08:16:26.280Z,101481.38
2022-08-26T08:18:54.591Z,101490.44
2022-08-26T08:21:24.616Z,101481.88
2022-08-26T08:23:53.318Z,101497.50
2022-08-26T08:26:21.782Z,101484.75
2022-08-26T08:28:50.118Z,101490.09
2022-08-26T08:31:52.545Z,101483.06
2022-08-26T08:34:13.025Z,101485.22
2022-08-26T08:36:41.035Z,101489.56
2022-08-26T08:39:09.725Z,101487.69
2022-08-26T08:41:49.475Z,101487.19
2022-08-26T08:46:56.858Z,101482.16
2022-08-26T08:49:26.940Z,101479.31
2022-08-26T08:52:02.088Z,101482.69
2022-08-26T08:54:33.962Z,101480.31
2022-08-26T08:57:08.864Z,101492.91
2022-08-26T08:59:42.714Z,101491.56
2022-08-26T09:02:22.408Z,101497.28
2022-08-26T09:05:08.871Z,101501.97
2022-08-26T09:07:47.288Z,101498.47
2022-08-26T09:10:40.784Z,101498.09
2022-08-26T09:13:13.826Z,101497.44
2022-08-26T09:15:56.494Z,101497.44
2022-08-26T09:18:43.299Z,101501.97
2022-08-26T09:21:17.874Z,101500.81
2022-08-26T09:23:49.553Z,101498.94
2022-08-26T09:26:21.443Z,101508.50
2022-08-26T09:28:56.991Z,101501.09
2022-08-26T09:31:27.566Z,101501.13
2022-08-26T09:34:17.386Z,101498.09
2022-08-26T09:36:48.643Z,101495.63
2022-08-26T09:39:29.896Z,101498.31
2022-08-26T09:42:08.297Z,101493.13
2022-08-26T09:44:55.136Z,101496.34
2022-08-26T09:47:29.780Z,101496.50
2022-08-26T09:50:04.364Z,101500.50
2022-08-26T09:52:40.586Z,101505.88
2022-08-26T09:55:15.616Z,101508.88
2022-08-26T09:57:51.615Z,101498.69
2022-08-26T10:00:33.105Z,101503.22
2022-08-26T10:03:03.851Z,101507.53
2022-08-26T10:05:47.681Z,101501.00
2022-08-26T10:08:25.706Z,101509.03
2022-08-26T10:10:56.365Z,101490.38
2022-08-26T10:13:31.265Z,101497.25
2022-08-26T10:16:07.096Z,101498.44
2022-08-26T10:18:43.592Z,101499.94
2022-08-26T10:21:15.005Z,101485.69
2022-08-26T10:23:50.845Z,101488.88
2022-08-26T10:26:27.198Z,101494.53
2022-08-26T10:29:06.199Z,101497.03
2022-08-26T10:31:40.653Z,101494.34
2022-08-26T10:34:09.985Z,101499.59
2022-08-26T10:37:13.841Z,101493.78
2022-08-26T10:39:49.170Z,101497.09
2022-08-26T10:42:27.391Z,101499.13
2022-08-26T10:45:03.333Z,101497.13
2022-08-26T10:47:38.543Z,101497.13
2022-08-26T10:50:07.183Z,101501.34
2022-08-26T10:52:54.121Z,101506.72
2022-08-26T10:55:29.739Z,101503.53
2022-08-26T10:58:14.706Z,101507.88
2022-08-26T11:01:17.467Z,101506.53
2022-08-26T11:03:58.795Z,101512.75
2022-08-26T11:06:29.752Z,101512.91
2022-08-26T11:09:01.089Z,101508.88
2022-08-26T11:11:49.361Z,101518.13
2022-08-26T11:14:40.583Z,101520.28
2022-08-26T11:17:56.464Z,101516.94
2022-08-26T11:20:37.204Z,101515.09
2022-08-26T11:23:38.721Z,101513.25
2022-08-26T11:26:32.759Z,101516.28
2022-08-26T11:29:12.044Z,101512.25
2022-08-26T11:31:55.783Z,101512.91
2022-08-26T11:34:52.750Z,101510.72
2022-08-26T11:37:23.475Z,101515.53
2022-08-26T11:39:57.106Z,101513.34
2022-08-26T11:42:35.495Z,101513.03
2022-08-26T11:45:14.470Z,101517.84
2022-08-26T11:47:42.672Z,101504.88
2022-08-26T11:50:16.418Z,101499.75
2022-08-26T11:52:52.767Z,101494.34
2022-08-26T11:55:23.248Z,101498.38
2022-08-26T11:57:56.785Z,101497.38
2022-08-26T12:00:26.473Z,101492.00
2022-08-26T12:02:55.676Z,101494.50
2022-08-26T12:05:31.046Z,101502.72
2022-08-26T12:08:06.724Z,101497.19
2022-08-26T12:10:35.805Z,101499.78
2022-08-26T12:13:07.251Z,101499.38
2022-08-26T12:15:36.620Z,101500.06
2022-08-26T12:18:29.316Z,101504.34
2022-08-26T12:21:01.638Z,101503.59
2022-08-26T12:23:42.181Z,101502.25
2022-08-26T12:26:20.611Z,101509.63
2022-08-26T12:28:52.921Z,101507.13
2022-08-26T12:31:24.623Z,101505.19
2022-08-26T12:33:54.088Z,101509.63
2022-08-26T12:36:27.513Z,101507.59
2022-08-26T12:38:58.479Z,101506.41
2022-08-26T12:41:45.343Z,101513.78
2022-08-26T12:44:34.263Z,101511.94
2022-08-26T12:47:04.899Z,101520.97
2022-08-26T12:49:33.116Z,101513.78
2022-08-26T12:52:01.643Z,101510.66
2022-08-26T12:54:53.505Z,101511.97
2022-08-26T12:57:29.094Z,101513.31
2022-08-26T13:00:38.979Z,101517.41
2022-08-26T13:03:31.685Z,101523.44
2022-08-26T13:06:25.893Z,101526.72
2022-08-26T13:08:55.915Z,101520.16
2022-08-26T13:11:26.819Z,101529.69
2022-08-26T13:13:58.982Z,101520.16
2022-08-26T13:16:27.286Z,101524.00
2022-08-26T13:18:59.855Z,101522.03
2022-08-26T13:21:30.200Z,101530.88
2022-08-26T13:24:09.413Z,101526.03
2022-08-26T13:26:37.466Z,101526.66
2022-08-26T13:29:10.023Z,101534.31
2022-08-26T13:31:41.295Z,101521.81
2022-08-26T13:34:13.103Z,101522.13
2022-08-26T13:36:44.988Z,101519.97
2022-08-26T13:39:13.590Z,101516.06
2022-08-26T13:41:42.423Z,101514.78
2022-08-26T13:44:11.160Z,101515.94
2022-08-26T13:46:39.340Z,101506.56
2022-08-26T13:49:07.883Z,101512.94
2022-08-26T13:51:37.809Z,101509.41
2022-08-26T13:54:07.107Z,101508.84
2022-08-26T13:56:36.376Z,101509.91
2022-08-26T13:59:06.524Z,101508.78
2022-08-26T14:01:36.172Z,101507.94
2022-08-26T14:04:05.061Z,101505.38
2022-08-26T14:06:33.782Z,101504.91
2022-08-26T14:09:03.302Z,101505.59
2022-08-26T14:11:45.036Z,101505.72
2022-08-26T14:14:19.528Z,101514.25
2022-08-26T14:16:59.072Z,101510.56
2022-08-26T14:19:30.727Z,101516.88
2022-08-26T14:22:00.825Z,101517.22
2022-08-26T14:24:30.978Z,101520.25
2022-08-26T14:26:59.483Z,101519.88
2022-08-26T14:29:27.689Z,101517.31
2022-08-26T14:31:58.734Z,101515.91
2022-08-26T14:34:30.028Z,101509.41
2022-08-26T14:36:58.133Z,101507.03
2022-08-26T14:39:37.427Z,101505.41
2022-08-26T14:42:06.339Z,101505.75
2022-08-26T14:44:34.994Z,101507.53
2022-08-26T14:47:06.072Z,101510.53
2022-08-26T14:49:34.179Z,101506.91
2022-08-26T14:52:02.219Z,101504.47
2022-08-26T14:54:30.600Z,101507.03
2022-08-26T14:57:03.560Z,101502.34
2022-08-26T14:59:34.641Z,101498.84
2022-08-26T15:02:03.324Z,101503.88
2022-08-26T15:04:31.957Z,101496.00
2022-08-26T15:07:01.417Z,101496.00
2022-08-26T15:09:31.157Z,101490.34
2022-08-26T15:12:00.691Z,101489.50
2022-08-26T15:14:32.839Z,101487.34
2022-08-26T15:17:01.341Z,101479.66
2022-08-26T15:19:29.482Z,101484.34
2022-08-26T15:21:57.691Z,101493.09
2022-08-26T15:24:28.793Z,101479.00
2022-08-26T15:26:57.108Z,101474.81
2022-08-26T15:29:26.725Z,101475.66
2022-08-26T15:31:57.190Z,101473.31
2022-08-26T15:34:25.698Z,101471.47
2022-08-26T15:36:53.858Z,101473.63
2022-08-26T15:39:22.212Z,101474.47
2022-08-26T15:41:50.577Z,101478.00
2022-08-26T15:44:19.719Z,101473.00
2022-08-26T15:46:54.261Z,101476.66
2022-08-26T15:49:24.559Z,101483.38
2022-08-26T15:51:52.803Z,101474.16
2022-08-26T15:54:24.885Z,101478.66
2022-08-26T15:56:53.784Z,101481.31
2022-08-26T15:59:23.061Z,101480.97
2022-08-26T16:01:53.245Z,101481.94
2022-08-26T16:04:21.585Z,101489.31
2022-08-26T16:06:52.104Z,101486.69
2022-08-26T16:09:21.152Z,101487.53
2022-08-26T16:11:49.196Z,101487.47
2022-08-26T16:14:17.556Z,101488.63
2022-08-26T16:16:45.572Z,101490.22
2022-08-26T16:19:15.424Z,101493.59
2022-08-26T16:21:44.695Z,101485.25
2022-08-26T16:24:13.301Z,101483.81
2022-08-26T16:26:43.009Z,101491.72
2022-08-26T16:29:14.145Z,101489.44
2022-08-26T16:31:42.415Z,101488.28
2022-08-26T16:34:11.050Z,101493.41
2022-08-26T16:36:41.002Z,101495.00
2022-08-26T16:39:10.120Z,101486.13
2022-08-26T16:41:38.273Z,101489.44
2022-08-26T16:44:07.225Z,101489.91
2022-08-26T16:46:36.303Z,101489.22
2022-08-26T16:49:04.787Z,101495.97
2022-08-26T16:51:37.907Z,101507.03
2022-08-26T16:54:09.186Z,101497.41
2022-08-26T16:56:38.565Z,101500.69
2022-08-26T16:59:10.554Z,101502.03
2022-08-26T17:01:38.859Z,101500.06
2022-08-26T17:04:06.997Z,101498.25
2022-08-26T17:06:35.199Z,101486.75
2022-08-26T17:09:03.288Z,101494.25
2022-08-26T17:11:33.088Z,101485.06
2022-08-26T17:14:01.209Z,101479.34
2022-08-26T17:16:29.466Z,101486.88
2022-08-26T17:18:58.160Z,101491.22
2022-08-26T17:21:27.980Z,101485.94
2022-08-26T17:23:56.397Z,101493.19
2022-08-26T17:26:24.857Z,101502.22
2022-08-26T17:28:54.810Z,101502.72
2022-08-26T17:31:23.653Z,101508.22
2022-08-26T17:33:53.666Z,101504.84
2022-08-26T17:36:27.900Z,101513.88
2022-08-26T17:38:57.357Z,101510.97
2022-08-26T17:41:26.612Z,101514.50
2022-08-26T17:43:56.334Z,101517.78
2022-08-26T17:46:24.727Z,101517.69
2022-08-26T17:48:52.792Z,101524.00
2022-08-26T17:51:22.748Z,101526.97
2022-08-26T17:53:51.366Z,101529.72
2022-08-26T17:56:25.556Z,101523.38
2022-08-26T17:58:57.803Z,101531.63
2022-08-26T18:01:30.768Z,101526.34
2022-08-26T18:04:00.597Z,101527.59
2022-08-26T18:06:30.587Z,101531.28
2022-08-26T18:08:58.892Z,101533.88
2022-08-26T18:11:27.603Z,101526.44
2022-08-26T18:13:57.012Z,101521.88
2022-08-26T18:16:25.584Z,101525.16
2022-08-26T18:18:54.421Z,101537.75
2022-08-26T18:21:25.708Z,101536.22
2022-08-26T18:23:55.154Z,101543.53
2022-08-26T18:26:25.342Z,101548.75
2022-08-26T18:28:53.598Z,101545.97
2022-08-26T18:31:23.500Z,101546.59
2022-08-26T18:33:51.961Z,101551.47
2022-08-26T18:36:22.733Z,101555.69
2022-08-26T18:38:52.094Z,101551.00
2022-08-26T18:41:21.975Z,101555.59
2022-08-26T18:43:50.937Z,101553.22
2022-08-26T18:46:20.378Z,101552.38
2022-08-26T18:48:51.239Z,101563.53
2022-08-26T18:51:21.342Z,101565.66
2022-08-26T18:53:49.430Z,101565.56
2022-08-26T18:56:18.695Z,101566.53
2022-08-26T18:58:47.166Z,101565.75
2022-08-26T19:01:16.332Z,101570.38
2022-08-26T19:03:44.710Z,101572.50
2022-08-26T19:06:16.733Z,101569.44
2022-08-26T19:08:45.299Z,101576.06
2022-08-26T19:11:32.510Z,101581.81
2022-08-26T19:14:07.678Z,101579.41
2022-08-26T19:16:36.369Z,101582.91
2022-08-26T19:19:04.811Z,101588.56
2022-08-26T19:21:35.846Z,101584.50
2022-08-26T19:24:07.244Z,101584.69
2022-08-26T19:26:36.657Z,101587.53
2022-08-26T19:29:05.373Z,101584.28
2022-08-26T19:31:33.660Z,101583.56
2022-08-26T19:34:01.749Z,101592.25
2022-08-26T19:36:29.992Z,101593.97
2022-08-26T19:39:00.270Z,101595.91
2022-08-26T19:41:37.610Z,101596.22
2022-08-26T19:44:08.402Z,101586.81
2022-08-26T19:49:10.233Z,101599.16
2022-08-26T19:51:38.461Z,101601.69
2022-08-26T19:54:07.940Z,101596.09
2022-08-26T19:56:36.604Z,101603.13
2022-08-26T19:59:04.716Z,101605.38
2022-08-26T20:01:32.915Z,101603.34
2022-08-26T20:04:01.058Z,101605.50
2022-08-26T20:06:29.142Z,101602.69
2022-08-26T20:08:57.303Z,101598.75
2022-08-26T20:11:26.716Z,101592.56
2022-08-26T20:13:55.372Z,101599.00
2022-08-26T20:16:23.541Z,101600.72
2022-08-26T20:19:08.870Z,101603.22
2022-08-26T20:21:39.082Z,101596.78
2022-08-26T20:24:10.741Z,101597.75
2022-08-26T20:26:42.639Z,101598.72
2022-08-26T20:29:12.367Z,101594.53
2022-08-26T20:31:40.814Z,101597.75
2022-08-26T20:34:09.258Z,101595.53
2022-08-26T20:36:40.379Z,101592.72
2022-08-26T20:39:10.836Z,101593.84
2022-08-26T20:41:40.881Z,101582.16
2022-08-26T20:44:09.490Z,101589.75
2022-08-26T20:46:38.768Z,101597.91
2022-08-26T20:49:07.542Z,101598.03
2022-08-26T20:51:37.459Z,101596.50
2022-08-26T20:54:06.409Z,101600.13
2022-08-26T20:56:34.595Z,101603.34
2022-08-26T20:59:06.919Z,101605.19
2022-08-26T21:01:37.058Z,101604.22
2022-08-26T21:04:12.777Z,101609.97
2022-08-26T21:06:42.236Z,101607.16
2022-08-26T21:09:17.273Z,101609.53
2022-08-26T21:11:46.088Z,101607.69
2022-08-26T21:14:17.125Z,101604.59
2022-08-26T21:16:46.752Z,101606.28
2022-08-26T21:19:17.676Z,101611.31
2022-08-26T21:21:45.890Z,101601.63
2022-08-26T21:24:14.342Z,101596.06
2022-08-26T21:26:42.895Z,101597.97
2022-08-26T21:29:10.951Z,101598.56
2022-08-26T21:31:45.662Z,101604.59
2022-08-26T21:34:15.267Z,101600.53
2022-08-26T21:36:43.426Z,101605.56
2022-08-26T21:39:12.370Z,101604.59
2022-08-26T21:41:41.256Z,101605.16
2022-08-26T21:44:10.462Z,101607.09
2022-08-26T21:46:41.427Z,101600.06
2022-08-26T21:49:12.290Z,101601.44
2022-08-26T21:51:42.869Z,101595.13
2022-08-26T21:54:12.733Z,101603.41
2022-08-26T21:56:46.768Z,101607.69
2022-08-26T21:59:16.373Z,101608.84
2022-08-26T22:01:45.786Z,101607.69
2022-08-26T22:04:14.058Z,101610.91
2022-08-26T22:06:44.708Z,101610.91
2022-08-26T22:09:14.481Z,101610.91
2022-08-26T22:11:43.163Z,101612.28
2022-08-26T22:14:12.264Z,101616.50
2022-08-26T22:16:40.513Z,101611.16
2022-08-26T22:19:13.802Z,101611.44
2022-08-26T22:21:45.782Z,101623.00
2022-08-26T22:24:15.180Z,101619.22
2022-08-26T22:26:43.301Z,101611.47
2022-08-26T22:29:11.376Z,101618.06
2022-08-26T22:31:40.326Z,101613.59
2022-08-26T22:34:12.454Z,101619.31
2022-08-26T22:36:44.404Z,101619.31
2022-08-26T22:39:13.853Z,101611.63
2022-08-26T22:41:43.039Z,101617.91
2022-08-26T22:44:11.994Z,101610.78
2022-08-26T22:46:41.061Z,101610.34
2022-08-26T22:49:12.574Z,101610.75
2022-08-26T22:51:40.632Z,101611.59
2022-08-26T22:54:08.738Z,101612.28
2022-08-26T22:56:37.403Z,101597.53
2022-08-26T22:59:06.781Z,101603.41
2022-08-26T23:01:36.693Z,101612.38
2022-08-26T23:04:06.279Z,101599.78
2022-08-26T23:06:37.653Z,101599.63
2022-08-26T23:09:06.766Z,101599.66
2022-08-26T23:11:34.769Z,101599.16
2022-08-26T23:14:06.292Z,101605.28
2022-08-26T23:16:39.202Z,101599.13
2022-08-26T23:19:08.140Z,101603.56
2022-08-26T23:21:37.641Z,101607.09
2022-08-26T23:24:06.178Z,101608.94
2022-08-26T23:26:34.746Z,101610.72
2022-08-26T23:29:03.295Z,101616.06
2022-08-26T23:31:31.389Z,101614.44
2022-08-26T23:34:17.288Z,101610.03
2022-08-26T23:36:47.005Z,101609.41
2022-08-26T23:39:15.381Z,101600.41
2022-08-26T23:41:43.616Z,101603.41
2022-08-26T23:44:12.336Z,101599.84
2022-08-26T23:46:40.433Z,101591.00
2022-08-26T23:49:08.460Z,101596.19
2022-08-26T23:51:54.296Z,101597.44
2022-08-26T23:54:24.060Z,101600.97
2022-08-26T23:56:52.221Z,101595.63
2022-08-26T23:59:20.527Z,101598.28
